createdAt,value
2023-05-18T00:01:30.693Z,78.80
2023-05-18T00:04:34.383Z,78.80
2023-05-18T00:07:37.335Z,79.20
2023-05-18T00:10:39.226Z,78.90
2023-05-18T00:13:40.841Z,78.60
2023-05-18T00:16:42.541Z,78.80
2023-05-18T00:19:46.519Z,79.00
2023-05-18T00:22:48.239Z,79.30
2023-05-18T00:25:49.832Z,79.20
2023-05-18T00:28:51.441Z,79.40
2023-05-18T00:31:53.252Z,79.40
2023-05-18T00:34:54.877Z,79.50
2023-05-18T00:37:56.468Z,79.70
2023-05-18T00:40:58.197Z,79.50
2023-05-18T00:44:00.751Z,79.50
2023-05-18T00:47:02.403Z,79.60
2023-05-18T00:50:04.501Z,80.80
2023-05-18T00:53:06.101Z,80.00
2023-05-18T00:56:07.981Z,80.00
2023-05-18T00:59:11.627Z,80.10
2023-05-18T01:02:14.730Z,80.40
2023-05-18T01:05:18.026Z,80.40
2023-05-18T01:08:19.684Z,80.90
2023-05-18T01:11:59.263Z,80.90
2023-05-18T01:15:10.217Z,79.80
2023-05-18T01:18:31.564Z,80.80
2023-05-18T01:22:04.063Z,79.60
2023-05-18T01:25:19.442Z,79.60
2023-05-18T01:28:26.305Z,79.80
2023-05-18T01:31:28.864Z,81.00
2023-05-18T01:34:30.607Z,81.20
2023-05-18T01:37:32.166Z,81.00
2023-05-18T01:40:41.695Z,81.10
2023-05-18T01:43:50.399Z,81.40
2023-05-18T01:47:04.156Z,81.40
2023-05-18T01:50:18.341Z,80.80
2023-05-18T01:53:19.904Z,80.30
2023-05-18T01:56:21.796Z,81.40
2023-05-18T01:59:23.993Z,81.70
2023-05-18T02:02:28.914Z,81.70
2023-05-18T02:05:30.911Z,82.10
2023-05-18T02:08:33.601Z,82.50
2023-05-18T02:11:35.190Z,82.10
2023-05-18T02:14:37.133Z,82.20
2023-05-18T02:17:39.012Z,82.10
2023-05-18T02:20:41.027Z,82.30
2023-05-18T02:23:42.705Z,82.70
2023-05-18T02:26:44.696Z,82.60
2023-05-18T02:29:46.384Z,82.90
2023-05-18T02:32:49.145Z,82.60
2023-05-18T02:35:52.190Z,82.80
2023-05-18T02:38:53.888Z,83.40
2023-05-18T02:41:55.522Z,83.00
2023-05-18T02:44:57.236Z,83.00
2023-05-18T02:47:58.879Z,82.90
2023-05-18T02:51:00.599Z,82.90
2023-05-18T02:54:02.257Z,83.10
2023-05-18T02:57:03.911Z,83.10
2023-05-18T03:00:11.924Z,83.60
2023-05-18T03:03:15.645Z,82.40
2023-05-18T03:06:17.446Z,83.50
2023-05-18T03:09:19.627Z,83.30
2023-05-18T03:12:21.395Z,83.40
2023-05-18T03:15:23.251Z,83.10
2023-05-18T03:18:25.571Z,83.30
2023-05-18T03:21:33.370Z,84.30
2023-05-18T03:24:40.131Z,84.00
2023-05-18T03:27:41.772Z,84.80
2023-05-18T03:30:43.345Z,83.90
2023-05-18T03:33:44.936Z,84.50
2023-05-18T03:36:47.268Z,84.40
2023-05-18T03:39:48.936Z,84.30
2023-05-18T03:42:50.555Z,84.40
2023-05-18T03:45:53.076Z,84.40
2023-05-18T03:48:54.703Z,84.50
2023-05-18T03:51:56.688Z,84.70
2023-05-18T03:54:58.268Z,84.70
2023-05-18T03:58:00.081Z,84.70
2023-05-18T04:01:02.830Z,84.80
2023-05-18T04:04:04.588Z,84.80
2023-05-18T04:07:06.296Z,84.90
2023-05-18T04:10:08.478Z,85.00
2023-05-18T04:13:10.423Z,84.90
2023-05-18T04:16:13.350Z,84.90
2023-05-18T04:19:15.652Z,85.10
2023-05-18T04:22:18.518Z,85.00
2023-05-18T04:25:20.680Z,85.00
2023-05-18T04:28:22.259Z,84.30
2023-05-18T04:31:23.874Z,85.20
2023-05-18T04:34:26.461Z,85.20
2023-05-18T04:37:28.514Z,85.40
2023-05-18T04:40:33.726Z,85.20
2023-05-18T04:43:36.432Z,86.30
2023-05-18T04:46:39.761Z,85.30
2023-05-18T04:49:41.356Z,85.00
2023-05-18T04:52:50.365Z,85.20
2023-05-18T04:55:53.195Z,85.30
2023-05-18T04:58:59.260Z,85.00
2023-05-18T05:02:00.868Z,84.80
2023-05-18T05:05:02.479Z,85.10
2023-05-18T05:08:06.055Z,85.00
2023-05-18T05:11:07.627Z,85.10
2023-05-18T05:14:09.542Z,85.30
2023-05-18T05:17:12.535Z,85.00
2023-05-18T05:20:14.176Z,85.00
2023-05-18T05:23:15.930Z,85.00
2023-05-18T05:26:20.084Z,85.00
2023-05-18T05:29:21.684Z,84.90
2023-05-18T05:32:23.312Z,84.90
2023-05-18T05:35:25.102Z,85.00
2023-05-18T05:38:26.806Z,85.30
2023-05-18T05:41:28.385Z,85.20
2023-05-18T05:44:29.983Z,85.20
2023-05-18T05:47:31.699Z,84.70
2023-05-18T05:50:33.388Z,85.10
2023-05-18T05:53:35.006Z,85.10
2023-05-18T05:56:36.584Z,84.60
2023-05-18T05:59:38.177Z,84.70
2023-05-18T06:02:40.211Z,84.40
2023-05-18T06:05:41.866Z,84.30
2023-05-18T06:08:43.481Z,84.20
2023-05-18T06:11:45.160Z,83.80
2023-05-18T06:14:47.310Z,83.70
2023-05-18T06:17:48.986Z,82.50
2023-05-18T06:20:51.205Z,83.30
2023-05-18T06:23:52.827Z,83.90
2023-05-18T06:26:54.682Z,83.20
2023-05-18T06:29:56.343Z,83.10
2023-05-18T06:32:58.224Z,83.10
2023-05-18T06:36:00.376Z,83.00
2023-05-18T06:39:01.963Z,81.60
2023-05-18T06:42:03.697Z,82.30
2023-05-18T06:45:06.156Z,82.30
2023-05-18T06:48:08.504Z,81.90
2023-05-18T06:51:10.651Z,82.30
2023-05-18T06:54:12.906Z,81.90
2023-05-18T06:57:14.535Z,81.80
2023-05-18T07:00:16.836Z,81.60
2023-05-18T07:03:18.591Z,81.00
2023-05-18T07:06:20.718Z,81.40
2023-05-18T07:09:23.248Z,81.30
2023-05-18T07:12:26.175Z,81.50
2023-05-18T07:15:27.802Z,81.30
2023-05-18T07:18:29.458Z,81.00
2023-05-18T07:21:31.377Z,80.70
2023-05-18T07:24:33.213Z,80.40
2023-05-18T07:27:37.860Z,80.70
2023-05-18T07:30:39.534Z,80.80
2023-05-18T07:33:41.285Z,80.50
2023-05-18T07:36:43.004Z,80.60
2023-05-18T07:39:44.582Z,80.00
2023-05-18T07:42:46.487Z,80.40
2023-05-18T07:45:48.079Z,79.80
2023-05-18T07:48:49.699Z,80.50
2023-05-18T07:51:51.870Z,79.40
2023-05-18T07:54:54.900Z,79.20
2023-05-18T07:57:56.499Z,79.30
2023-05-18T08:00:58.329Z,79.50
2023-05-18T08:04:00.015Z,80.30
2023-05-18T08:07:03.147Z,79.10
2023-05-18T08:10:05.415Z,79.20
2023-05-18T08:13:07.751Z,78.60
2023-05-18T08:16:12.283Z,79.80
2023-05-18T08:19:14.367Z,80.10
2023-05-18T08:22:16.006Z,78.40
2023-05-18T08:25:17.910Z,77.80
2023-05-18T08:28:19.482Z,78.00
2023-05-18T08:31:21.592Z,77.80
2023-05-18T08:34:23.290Z,77.80
2023-05-18T08:37:29.172Z,77.90
2023-05-18T08:40:37.667Z,77.60
2023-05-18T08:43:44.930Z,77.00
2023-05-18T08:46:54.672Z,76.80
2023-05-18T08:49:57.662Z,74.90
2023-05-18T08:53:02.514Z,77.10
2023-05-18T08:56:04.846Z,77.20
2023-05-18T08:59:08.798Z,76.30
2023-05-18T09:02:17.818Z,76.30
2023-05-18T09:05:21.206Z,77.10
2023-05-18T09:08:23.706Z,76.50
2023-05-18T09:11:26.956Z,76.20
2023-05-18T09:14:29.635Z,76.50
2023-05-18T09:17:31.356Z,76.20
2023-05-18T09:20:33.147Z,76.00
2023-05-18T09:23:35.416Z,75.70
2023-05-18T09:26:37.901Z,75.20
2023-05-18T09:29:53.554Z,75.50
2023-05-18T09:32:55.352Z,75.30
2023-05-18T09:35:57.220Z,75.20
2023-05-18T09:38:58.973Z,75.50
2023-05-18T09:42:03.798Z,76.50
2023-05-18T09:45:19.987Z,76.30
2023-05-18T09:48:25.245Z,75.50
2023-05-18T09:51:27.161Z,74.80
2023-05-18T09:54:29.022Z,74.80
2023-05-18T09:57:30.654Z,74.70
2023-05-18T10:00:33.107Z,74.40
2023-05-18T10:03:37.466Z,74.20
2023-05-18T10:06:42.595Z,73.80
2023-05-18T10:09:45.962Z,74.10
2023-05-18T10:12:50.624Z,74.00
2023-05-18T10:15:55.325Z,74.30
2023-05-18T10:18:57.145Z,74.00
2023-05-18T10:22:01.122Z,73.70
2023-05-18T10:25:06.935Z,74.00
2023-05-18T10:28:11.316Z,74.60
2023-05-18T10:31:15.342Z,73.30
2023-05-18T10:34:18.493Z,72.80
2023-05-18T10:37:23.595Z,72.60
2023-05-18T10:40:28.241Z,72.70
2023-05-18T10:43:32.501Z,73.10
2023-05-18T10:46:36.054Z,72.70
2023-05-18T10:49:37.820Z,72.80
2023-05-18T10:52:41.291Z,73.20
2023-05-18T10:55:42.976Z,72.60
2023-05-18T10:58:46.451Z,72.10
2023-05-18T11:01:50.183Z,73.20
2023-05-18T11:04:54.319Z,72.80
2023-05-18T11:08:05.871Z,73.10
2023-05-18T11:11:08.283Z,72.60
2023-05-18T11:14:09.998Z,73.30
2023-05-18T11:17:22.104Z,72.90
2023-05-18T11:20:25.901Z,71.00
2023-05-18T11:23:34.695Z,73.10
2023-05-18T11:26:44.468Z,70.00
2023-05-18T11:29:47.460Z,71.70
2023-05-18T11:32:52.544Z,71.90
2023-05-18T11:35:55.324Z,71.70
2023-05-18T11:39:06.668Z,71.90
2023-05-18T11:42:14.445Z,72.80
2023-05-18T11:45:17.101Z,71.70
2023-05-18T11:48:24.587Z,71.80
2023-05-18T11:51:28.263Z,71.70
2023-05-18T11:54:54.312Z,72.30
2023-05-18T11:57:56.072Z,72.00
2023-05-18T12:00:58.405Z,71.50
2023-05-18T12:04:00.353Z,71.30
2023-05-18T12:07:05.638Z,71.40
2023-05-18T12:10:09.379Z,70.60
2023-05-18T12:13:12.278Z,70.40
2023-05-18T12:16:14.800Z,70.90
2023-05-18T12:19:19.551Z,70.90
2023-05-18T12:22:21.846Z,71.40
2023-05-18T12:25:26.745Z,71.40
2023-05-18T12:28:29.008Z,69.70
2023-05-18T12:31:31.577Z,69.10
2023-05-18T12:34:33.445Z,69.50
2023-05-18T12:40:49.046Z,68.80
2023-05-18T12:43:51.975Z,68.40
2023-05-18T12:46:55.045Z,68.30
2023-05-18T12:49:56.741Z,67.80
2023-05-18T12:52:58.485Z,67.60
2023-05-18T12:56:01.494Z,68.70
2023-05-18T12:59:04.405Z,68.90
2023-05-18T13:02:07.141Z,67.30
2023-05-18T13:05:11.043Z,68.00
2023-05-18T13:08:21.781Z,66.70
2023-05-18T13:11:26.242Z,66.70
2023-05-18T13:14:30.353Z,67.40
2023-05-18T13:17:32.506Z,65.60
2023-05-18T13:20:49.560Z,65.60
2023-05-18T13:23:51.496Z,63.40
2023-05-18T13:26:53.190Z,65.70
2023-05-18T13:29:58.314Z,64.80
2023-05-18T13:33:00.615Z,65.60
2023-05-18T13:36:02.516Z,64.70
2023-05-18T13:39:07.109Z,65.20
2023-05-18T13:42:08.698Z,64.10
2023-05-18T13:45:15.736Z,64.80
2023-05-18T13:48:17.912Z,63.10
2023-05-18T13:51:19.664Z,63.10
2023-05-18T13:54:21.363Z,62.50
2023-05-18T13:57:23.888Z,62.70
2023-05-18T14:00:26.100Z,63.30
2023-05-18T14:03:27.809Z,61.80
2023-05-18T14:06:29.480Z,63.00
2023-05-18T14:09:31.128Z,61.90
2023-05-18T14:12:33.043Z,62.50
2023-05-18T14:15:34.653Z,61.20
2023-05-18T14:18:36.454Z,61.50
2023-05-18T14:21:38.116Z,60.70
2023-05-18T14:24:40.767Z,60.70
2023-05-18T14:27:42.408Z,61.60
2023-05-18T14:30:44.092Z,61.20
2023-05-18T14:33:45.956Z,60.50
2023-05-18T14:36:47.717Z,60.20
2023-05-18T14:39:49.510Z,60.40
2023-05-18T14:42:53.650Z,60.80
2023-05-18T14:46:07.433Z,59.80
2023-05-18T14:49:10.054Z,59.70
2023-05-18T14:52:11.669Z,60.70
2023-05-18T14:55:13.271Z,59.70
2023-05-18T14:58:14.919Z,60.10
2023-05-18T15:01:16.637Z,60.70
2023-05-18T15:04:19.189Z,60.70
2023-05-18T15:07:20.920Z,61.10
2023-05-18T15:10:23.176Z,61.70
2023-05-18T15:13:24.956Z,60.90
2023-05-18T15:16:26.995Z,61.40
2023-05-18T15:19:28.814Z,62.80
2023-05-18T15:22:31.047Z,63.00
2023-05-18T15:25:32.746Z,63.00
2023-05-18T15:28:34.351Z,64.70
2023-05-18T15:31:39.479Z,64.00
2023-05-18T15:34:41.183Z,65.30
2023-05-18T15:37:43.010Z,65.20
2023-05-18T15:40:47.659Z,65.00
2023-05-18T15:43:49.321Z,66.30
2023-05-18T15:46:51.034Z,65.10
2023-05-18T15:49:52.639Z,66.40
2023-05-18T15:52:56.460Z,65.50
2023-05-18T15:55:59.581Z,66.50
2023-05-18T15:59:01.393Z,65.70
2023-05-18T16:02:03.067Z,65.70
2023-05-18T16:05:05.140Z,65.70
2023-05-18T16:08:06.775Z,65.40
2023-05-18T16:11:10.921Z,65.60
2023-05-18T16:14:12.532Z,65.70
2023-05-18T16:17:14.277Z,65.60
2023-05-18T16:20:17.773Z,66.40
2023-05-18T16:23:19.360Z,66.00
2023-05-18T16:26:21.973Z,66.30
2023-05-18T16:29:23.582Z,67.00
2023-05-18T16:32:27.534Z,66.60
2023-05-18T16:35:30.951Z,66.70
2023-05-18T16:38:37.229Z,66.70
2023-05-18T16:41:38.833Z,66.80
2023-05-18T16:44:40.531Z,66.80
2023-05-18T16:47:42.197Z,67.80
2023-05-18T16:50:43.893Z,66.80
2023-05-18T16:53:45.562Z,67.00
2023-05-18T16:56:47.169Z,66.50
2023-05-18T16:59:49.081Z,68.00
2023-05-18T17:02:52.407Z,66.50
2023-05-18T17:05:54.245Z,66.60
2023-05-18T17:08:58.857Z,65.30
2023-05-18T17:12:00.885Z,65.50
2023-05-18T17:15:02.905Z,67.20
2023-05-18T17:18:05.149Z,66.30
2023-05-18T17:21:06.747Z,65.40
2023-05-18T17:24:08.414Z,66.30
2023-05-18T17:27:10.103Z,66.10
2023-05-18T17:30:12.202Z,67.50
2023-05-18T17:33:13.943Z,65.90
2023-05-18T17:36:18.647Z,65.70
2023-05-18T17:39:20.326Z,66.00
2023-05-18T17:42:21.946Z,65.70
2023-05-18T17:45:23.606Z,66.80
2023-05-18T17:48:25.245Z,65.30
2023-05-18T17:51:27.073Z,64.60
2023-05-18T17:54:28.703Z,63.10
2023-05-18T17:57:31.254Z,59.60
2023-05-18T18:00:33.282Z,61.10
2023-05-18T18:03:36.515Z,62.60
2023-05-18T18:06:38.207Z,65.10
2023-05-18T18:09:39.844Z,65.70
2023-05-18T18:12:41.704Z,67.30
2023-05-18T18:15:43.346Z,67.40
2023-05-18T18:18:45.209Z,67.30
2023-05-18T18:21:46.871Z,67.30
2023-05-18T18:24:48.454Z,67.80
2023-05-18T18:27:50.106Z,67.80
2023-05-18T18:30:53.344Z,69.00
2023-05-18T18:33:55.017Z,68.10
2023-05-18T18:36:56.734Z,68.10
2023-05-18T18:39:58.365Z,68.00
2023-05-18T18:43:00.025Z,68.40
2023-05-18T18:46:01.835Z,68.60
2023-05-18T18:49:03.525Z,69.50
2023-05-18T18:52:05.390Z,68.60
2023-05-18T18:55:07.256Z,68.40
2023-05-18T18:58:09.062Z,68.90
2023-05-18T19:01:10.692Z,69.00
2023-05-18T19:04:12.993Z,69.60
2023-05-18T19:07:14.588Z,69.00
2023-05-18T19:10:16.636Z,69.40
2023-05-18T19:13:18.364Z,69.30
2023-05-18T19:16:21.472Z,69.20
2023-05-18T19:19:23.469Z,69.50
2023-05-18T19:22:27.240Z,69.70
2023-05-18T19:25:29.885Z,69.60
2023-05-18T19:28:31.785Z,69.60
2023-05-18T19:31:39.465Z,69.50
2023-05-18T19:34:41.138Z,68.30
2023-05-18T19:37:43.081Z,70.00
2023-05-18T19:40:44.767Z,70.00
2023-05-18T19:43:46.365Z,69.70
2023-05-18T19:46:48.054Z,71.20
2023-05-18T19:49:49.634Z,70.40
2023-05-18T19:52:51.261Z,70.30
2023-05-18T19:55:52.963Z,70.50
2023-05-18T19:58:54.804Z,70.70
2023-05-18T20:01:59.744Z,70.70
2023-05-18T20:05:01.464Z,71.00
2023-05-18T20:08:04.852Z,70.90
2023-05-18T20:11:06.502Z,71.00
2023-05-18T20:14:08.559Z,71.40
2023-05-18T20:17:10.197Z,70.10
2023-05-18T20:20:15.916Z,71.10
2023-05-18T20:23:18.246Z,71.70
2023-05-18T20:26:19.854Z,72.10
2023-05-18T20:29:21.507Z,71.90
2023-05-18T20:32:23.208Z,72.20
2023-05-18T20:35:27.936Z,71.50
2023-05-18T20:38:30.725Z,71.60
2023-05-18T20:41:32.379Z,72.20
2023-05-18T20:44:34.958Z,71.90
2023-05-18T20:47:36.655Z,72.30
2023-05-18T20:50:39.249Z,72.10
2023-05-18T20:53:42.122Z,72.00
2023-05-18T20:56:44.378Z,72.30
2023-05-18T20:59:46.808Z,72.20
2023-05-18T21:02:48.803Z,72.20
2023-05-18T21:05:51.662Z,72.10
2023-05-18T21:08:53.399Z,72.40
2023-05-18T21:11:55.205Z,72.00
2023-05-18T21:14:59.527Z,72.20
2023-05-18T21:18:03.993Z,72.30
2023-05-18T21:21:06.093Z,72.40
2023-05-18T21:24:07.706Z,73.10
2023-05-18T21:27:09.294Z,72.70
2023-05-18T21:30:12.675Z,72.80
2023-05-18T21:33:14.417Z,72.30
2023-05-18T21:36:16.202Z,73.00
2023-05-18T21:39:17.972Z,72.70
2023-05-18T21:42:19.547Z,73.10
2023-05-18T21:45:22.507Z,72.80
2023-05-18T21:48:24.160Z,73.00
2023-05-18T21:51:25.813Z,73.00
2023-05-18T21:54:30.616Z,73.50
2023-05-18T21:57:35.026Z,73.60
2023-05-18T22:00:38.001Z,73.70
2023-05-18T22:03:39.962Z,74.70
2023-05-18T22:06:41.556Z,73.70
2023-05-18T22:09:43.223Z,73.90
2023-05-18T22:12:44.911Z,73.90
2023-05-18T22:15:46.587Z,74.80
2023-05-18T22:18:48.265Z,74.50
2023-05-18T22:21:50.146Z,74.10
2023-05-18T22:24:51.830Z,73.90
2023-05-18T22:27:53.733Z,74.20
2023-05-18T22:30:55.426Z,74.40
2023-05-18T22:33:57.009Z,74.70
2023-05-18T22:36:58.757Z,74.60
2023-05-18T22:40:00.559Z,74.60
2023-05-18T22:43:02.136Z,75.00
2023-05-18T22:46:03.808Z,74.80
2023-05-18T22:49:06.530Z,75.30
2023-05-18T22:52:08.204Z,75.80
2023-05-18T22:55:13.154Z,75.30
2023-05-18T22:58:14.713Z,75.20
2023-05-18T23:01:16.410Z,75.60
2023-05-18T23:04:19.570Z,75.30
2023-05-18T23:07:23.595Z,75.50
2023-05-18T23:10:26.325Z,75.60
2023-05-18T23:13:30.811Z,76.20
2023-05-18T23:16:32.560Z,75.40
2023-05-18T23:19:35.952Z,75.60
2023-05-18T23:22:37.523Z,76.00
2023-05-18T23:25:39.139Z,76.10
2023-05-18T23:28:40.835Z,76.70
2023-05-18T23:31:42.463Z,76.30
2023-05-18T23:34:44.480Z,76.40
2023-05-18T23:37:49.894Z,77.80
2023-05-18T23:40:53.742Z,77.20
2023-05-18T23:43:56.892Z,76.70
2023-05-18T23:46:58.931Z,77.50
2023-05-18T23:50:00.802Z,81.10
2023-05-18T23:53:04.416Z,76.40
2023-05-18T23:56:07.174Z,77.10
2023-05-18T23:59:10.305Z,76.80
